createdAt,value
2022-07-30T00:01:26.554Z,17.54
2022-07-30T00:03:55.545Z,17.47
2022-07-30T00:06:24.266Z,17.50
2022-07-30T00:08:52.565Z,17.45
2022-07-30T00:11:25.923Z,17.45
2022-07-30T00:13:57.766Z,17.30
2022-07-30T00:16:26.142Z,17.25
2022-07-30T00:18:54.438Z,17.21
2022-07-30T00:21:38.719Z,17.12
2022-07-30T00:24:08.948Z,17.17
2022-07-30T00:26:37.448Z,17.06
2022-07-30T00:29:07.963Z,16.95
2022-07-30T00:31:36.258Z,16.86
2022-07-30T00:34:04.646Z,16.84
2022-07-30T00:36:33.407Z,16.82
2022-07-30T00:39:01.702Z,16.74
2022-07-30T00:41:30.069Z,16.63
2022-07-30T00:43:58.430Z,16.46
2022-07-30T00:46:28.087Z,16.48
2022-07-30T00:48:57.445Z,16.23
2022-07-30T00:51:25.740Z,16.37
2022-07-30T00:53:54.030Z,16.28
2022-07-30T00:56:22.717Z,16.13
2022-07-30T00:58:51.114Z,16.26
2022-07-30T01:01:19.427Z,16.23
2022-07-30T01:03:49.113Z,16.30
2022-07-30T01:06:17.459Z,16.25
2022-07-30T01:08:45.661Z,16.26
2022-07-30T01:11:14.285Z,16.33
2022-07-30T01:13:44.180Z,16.30
2022-07-30T01:16:12.880Z,16.24
2022-07-30T01:18:59.987Z,16.27
2022-07-30T01:21:38.881Z,16.12
2022-07-30T01:24:26.307Z,16.22
2022-07-30T01:26:57.090Z,15.42
2022-07-30T01:29:28.903Z,16.13
2022-07-30T01:32:00.120Z,16.22
2022-07-30T01:34:32.609Z,16.26
2022-07-30T01:37:02.091Z,16.26
2022-07-30T01:39:31.724Z,16.76
2022-07-30T01:42:05.362Z,15.94
2022-07-30T01:44:34.239Z,15.92
2022-07-30T01:47:03.984Z,15.79
2022-07-30T01:49:35.960Z,15.81
2022-07-30T01:52:05.956Z,15.73
2022-07-30T01:54:36.430Z,15.71
2022-07-30T01:57:07.690Z,15.58
2022-07-30T01:59:39.076Z,15.42
2022-07-30T02:02:07.520Z,15.57
2022-07-30T02:04:36.048Z,15.61
2022-07-30T02:07:09.931Z,15.64
2022-07-30T02:09:47.963Z,15.55
2022-07-30T02:12:31.138Z,15.27
2022-07-30T02:15:12.852Z,15.43
2022-07-30T02:17:46.106Z,15.47
2022-07-30T02:20:17.827Z,15.52
2022-07-30T02:22:48.430Z,15.48
2022-07-30T02:25:21.557Z,15.46
2022-07-30T02:27:56.259Z,15.35
2022-07-30T02:30:28.908Z,15.30
2022-07-30T02:33:03.915Z,15.29
2022-07-30T02:35:34.019Z,15.21
2022-07-30T02:38:03.447Z,15.22
2022-07-30T02:40:32.996Z,15.21
2022-07-30T02:43:03.689Z,15.17
2022-07-30T02:45:32.524Z,14.80
2022-07-30T02:48:06.582Z,15.06
2022-07-30T02:50:35.731Z,15.62
2022-07-30T02:53:06.763Z,14.89
2022-07-30T02:55:37.639Z,14.70
2022-07-30T02:58:11.728Z,14.70
2022-07-30T03:00:40.919Z,14.70
2022-07-30T03:03:11.364Z,14.74
2022-07-30T03:05:41.026Z,14.73
2022-07-30T03:08:10.128Z,14.67
2022-07-30T03:10:39.690Z,14.70
2022-07-30T03:13:11.183Z,14.06
2022-07-30T03:15:45.228Z,14.62
2022-07-30T03:18:15.862Z,14.71
2022-07-30T03:20:48.606Z,14.83
2022-07-30T03:23:19.964Z,14.83
2022-07-30T03:25:55.828Z,14.83
2022-07-30T03:28:26.447Z,14.88
2022-07-30T03:30:55.393Z,14.88
2022-07-30T03:33:24.806Z,14.76
2022-07-30T03:36:08.529Z,14.89
2022-07-30T03:38:39.013Z,14.79
2022-07-30T03:41:09.228Z,14.80
2022-07-30T03:43:41.546Z,14.82
2022-07-30T03:46:13.038Z,14.82
2022-07-30T03:48:45.990Z,14.73
2022-07-30T03:51:14.446Z,14.52
2022-07-30T03:53:44.661Z,14.42
2022-07-30T03:56:34.806Z,14.25
2022-07-30T03:59:10.380Z,14.23
2022-07-30T04:01:41.631Z,14.28
2022-07-30T04:04:33.391Z,14.28
2022-07-30T04:07:02.003Z,14.23
2022-07-30T04:09:30.645Z,13.69
2022-07-30T04:12:09.269Z,14.27
2022-07-30T04:14:44.221Z,14.11
2022-07-30T04:17:18.717Z,14.18
2022-07-30T04:19:53.473Z,14.23
2022-07-30T04:22:29.487Z,13.36
2022-07-30T04:24:59.194Z,14.16
2022-07-30T04:27:28.127Z,14.01
2022-07-30T04:29:58.202Z,14.17
2022-07-30T04:32:26.492Z,13.75
2022-07-30T04:35:04.242Z,14.16
2022-07-30T04:37:58.038Z,14.28
2022-07-30T04:40:27.180Z,14.43
2022-07-30T04:42:55.540Z,14.58
2022-07-30T04:45:25.551Z,14.56
2022-07-30T04:47:57.929Z,14.66
2022-07-30T04:51:02.382Z,14.55
2022-07-30T04:53:33.834Z,14.79
2022-07-30T04:56:04.607Z,13.91
2022-07-30T04:58:34.880Z,14.66
2022-07-30T05:01:04.988Z,14.64
2022-07-30T05:03:35.833Z,14.72
2022-07-30T05:06:04.433Z,14.87
2022-07-30T05:08:37.767Z,14.91
2022-07-30T05:11:13.161Z,15.01
2022-07-30T05:13:46.361Z,14.55
2022-07-30T05:16:18.125Z,14.95
2022-07-30T05:18:46.633Z,15.15
2022-07-30T05:21:15.064Z,15.32
2022-07-30T05:23:50.078Z,15.39
2022-07-30T05:26:39.756Z,15.37
2022-07-30T05:29:19.719Z,15.81
2022-07-30T05:32:12.687Z,15.82
2022-07-30T05:34:41.138Z,15.41
2022-07-30T05:37:09.911Z,16.01
2022-07-30T05:39:58.885Z,16.14
2022-07-30T05:42:47.482Z,16.22
2022-07-30T05:45:15.714Z,16.33
2022-07-30T05:47:45.373Z,16.48
2022-07-30T05:50:14.279Z,16.57
2022-07-30T05:52:42.893Z,16.86
2022-07-30T05:55:31.207Z,16.68
2022-07-30T05:58:39.046Z,16.66
2022-07-30T06:01:07.526Z,16.77
2022-07-30T06:03:38.281Z,16.69
2022-07-30T06:06:37.700Z,16.92
2022-07-30T06:09:06.613Z,17.04
2022-07-30T06:11:34.903Z,16.94
2022-07-30T06:14:03.320Z,16.94
2022-07-30T06:16:31.810Z,17.10
2022-07-30T06:19:01.475Z,17.23
2022-07-30T06:22:05.979Z,17.25
2022-07-30T06:24:30.381Z,17.18
2022-07-30T06:27:09.798Z,17.40
2022-07-30T06:29:38.525Z,16.77
2022-07-30T06:32:07.890Z,17.55
2022-07-30T06:34:38.324Z,17.32
2022-07-30T06:37:06.742Z,17.91
2022-07-30T06:39:57.402Z,17.83
2022-07-30T06:42:44.510Z,17.89
2022-07-30T06:45:41.894Z,17.84
2022-07-30T06:48:31.411Z,18.35
2022-07-30T06:51:03.021Z,18.25
2022-07-30T06:53:31.677Z,18.43
2022-07-30T06:56:22.733Z,18.65
2022-07-30T06:58:59.413Z,18.63
2022-07-30T07:01:46.399Z,18.98
2022-07-30T07:04:14.988Z,19.00
2022-07-30T07:06:44.544Z,19.07
2022-07-30T07:09:16.949Z,19.04
2022-07-30T07:12:06.069Z,19.29
2022-07-30T07:14:34.405Z,19.13
2022-07-30T07:17:02.990Z,19.39
2022-07-30T07:20:00.316Z,19.31
2022-07-30T07:22:33.783Z,19.37
2022-07-30T07:25:02.053Z,19.42
2022-07-30T07:27:34.093Z,19.39
2022-07-30T07:30:06.407Z,19.39
2022-07-30T07:32:38.511Z,19.47
2022-07-30T07:35:08.009Z,19.74
2022-07-30T07:37:41.553Z,19.99
2022-07-30T07:40:14.217Z,19.57
2022-07-30T07:42:43.948Z,19.74
2022-07-30T07:45:12.965Z,20.01
2022-07-30T07:47:52.121Z,20.15
2022-07-30T07:50:41.219Z,20.06
2022-07-30T07:53:17.414Z,19.76
2022-07-30T07:55:46.413Z,20.03
2022-07-30T07:58:17.577Z,20.13
2022-07-30T08:00:54.261Z,20.24
2022-07-30T08:03:25.956Z,20.41
2022-07-30T08:06:05.843Z,20.22
2022-07-30T08:08:52.031Z,20.68
2022-07-30T08:11:50.208Z,20.46
2022-07-30T08:14:50.813Z,20.22
2022-07-30T08:17:47.695Z,20.20
2022-07-30T08:20:22.511Z,20.46
2022-07-30T08:22:50.845Z,20.51
2022-07-30T08:25:22.236Z,20.69
2022-07-30T08:27:53.263Z,20.86
2022-07-30T08:30:22.241Z,20.66
2022-07-30T08:32:50.648Z,20.93
2022-07-30T08:35:18.992Z,20.58
2022-07-30T08:37:47.631Z,20.46
2022-07-30T08:40:21.137Z,20.33
2022-07-30T08:43:00.248Z,20.13
2022-07-30T08:45:34.566Z,20.56
2022-07-30T08:48:30.676Z,20.89
2022-07-30T08:50:59.646Z,20.33
2022-07-30T08:53:37.274Z,20.80
2022-07-30T08:56:08.802Z,21.31
2022-07-30T08:58:37.957Z,21.04
2022-07-30T09:01:07.653Z,21.11
2022-07-30T09:03:44.156Z,21.11
2022-07-30T09:06:13.229Z,20.92
2022-07-30T09:08:42.618Z,20.83
2022-07-30T09:11:14.058Z,21.37
2022-07-30T09:13:44.605Z,21.41
2022-07-30T09:16:23.333Z,21.17
2022-07-30T09:18:53.903Z,21.33
2022-07-30T09:21:26.098Z,21.69
2022-07-30T09:24:23.421Z,22.03
2022-07-30T09:27:11.562Z,21.92
2022-07-30T09:30:00.277Z,21.51
2022-07-30T09:32:53.027Z,21.04
2022-07-30T09:35:45.312Z,21.19
2022-07-30T09:38:14.454Z,21.74
2022-07-30T09:41:17.285Z,21.85
2022-07-30T09:44:10.378Z,21.80
2022-07-30T09:46:47.724Z,21.82
2022-07-30T09:49:24.740Z,22.14
2022-07-30T09:51:57.014Z,22.32
2022-07-30T09:54:51.687Z,22.22
2022-07-30T09:57:27.184Z,22.65
2022-07-30T10:02:56.461Z,22.58
2022-07-30T10:05:56.789Z,22.80
2022-07-30T10:08:41.881Z,22.65
2022-07-30T10:11:17.224Z,22.53
2022-07-30T10:13:57.406Z,22.76
2022-07-30T10:16:28.085Z,22.73
2022-07-30T10:19:01.026Z,22.54
2022-07-30T10:21:51.198Z,22.74
2022-07-30T10:24:38.690Z,22.47
2022-07-30T10:27:25.689Z,22.52
2022-07-30T10:30:04.246Z,22.59
2022-07-30T10:32:34.272Z,22.51
2022-07-30T10:35:05.137Z,22.30
2022-07-30T10:37:34.325Z,22.59
2022-07-30T10:40:14.005Z,22.87
2022-07-30T10:43:12.754Z,22.68
2022-07-30T10:45:55.920Z,22.85
2022-07-30T10:48:25.078Z,23.20
2022-07-30T10:50:59.903Z,23.10
2022-07-30T10:53:38.371Z,22.87
2022-07-30T10:56:25.633Z,23.19
2022-07-30T10:59:03.972Z,22.63
2022-07-30T11:02:10.303Z,23.23
2022-07-30T11:04:39.709Z,22.78
2022-07-30T11:07:32.718Z,22.80
2022-07-30T11:10:09.371Z,22.38
2022-07-30T11:12:56.529Z,22.66
2022-07-30T11:15:25.434Z,22.54
2022-07-30T11:18:12.540Z,22.77
2022-07-30T11:20:48.791Z,22.46
2022-07-30T11:23:40.672Z,22.51
2022-07-30T11:26:50.581Z,23.11
2022-07-30T11:29:50.571Z,23.49
2022-07-30T11:32:32.234Z,22.79
2022-07-30T11:35:20.456Z,23.33
2022-07-30T11:38:08.155Z,23.78
2022-07-30T11:40:40.421Z,23.33
2022-07-30T11:43:35.535Z,23.19
2022-07-30T11:46:10.486Z,23.21
2022-07-30T11:48:41.811Z,23.24
2022-07-30T11:51:10.817Z,23.48
2022-07-30T11:53:39.281Z,23.55
2022-07-30T11:56:10.428Z,23.73
2022-07-30T11:58:44.761Z,24.05
2022-07-30T12:01:16.607Z,24.08
2022-07-30T12:03:52.476Z,23.49
2022-07-30T12:06:28.545Z,23.60
2022-07-30T12:08:58.867Z,23.44
2022-07-30T12:11:34.205Z,23.90
2022-07-30T12:14:03.422Z,24.28
2022-07-30T12:16:33.510Z,24.55
2022-07-30T12:19:06.385Z,24.61
2022-07-30T12:21:35.929Z,24.85
2022-07-30T12:24:07.492Z,24.59
2022-07-30T12:26:37.706Z,24.40
2022-07-30T12:29:10.181Z,24.68
2022-07-30T12:31:40.154Z,24.73
2022-07-30T12:34:21.766Z,24.46
2022-07-30T12:36:50.226Z,24.43
2022-07-30T12:39:25.108Z,24.62
2022-07-30T12:41:56.510Z,24.81
2022-07-30T12:44:42.332Z,24.90
2022-07-30T12:47:23.811Z,25.00
2022-07-30T12:49:53.739Z,25.16
2022-07-30T12:52:31.031Z,24.55
2022-07-30T12:55:02.442Z,24.62
2022-07-30T12:58:07.647Z,24.73
2022-07-30T13:00:52.296Z,25.08
2022-07-30T13:03:22.749Z,25.69
2022-07-30T13:05:55.245Z,25.55
2022-07-30T13:08:50.282Z,25.39
2022-07-30T13:11:19.054Z,25.51
2022-07-30T13:13:50.151Z,25.47
2022-07-30T13:16:19.960Z,25.37
2022-07-30T13:18:48.606Z,25.44
2022-07-30T13:21:16.867Z,25.47
2022-07-30T13:23:46.224Z,25.85
2022-07-30T13:26:14.441Z,25.20
2022-07-30T13:28:42.760Z,25.72
2022-07-30T13:31:12.378Z,25.82
2022-07-30T13:33:41.322Z,26.01
2022-07-30T13:36:09.920Z,26.08
2022-07-30T13:38:38.741Z,26.25
2022-07-30T13:41:07.300Z,26.23
2022-07-30T13:43:35.892Z,26.16
2022-07-30T13:46:04.860Z,26.00
2022-07-30T13:48:35.693Z,25.88
2022-07-30T13:51:05.951Z,26.23
2022-07-30T13:53:34.201Z,26.41
2022-07-30T13:56:03.570Z,26.17
2022-07-30T13:58:35.916Z,26.15
2022-07-30T14:01:07.099Z,26.29
2022-07-30T14:03:37.253Z,26.19
2022-07-30T14:06:10.857Z,25.73
2022-07-30T14:08:40.023Z,25.93
2022-07-30T14:11:08.352Z,25.69
2022-07-30T14:13:36.764Z,25.51
2022-07-30T14:16:13.865Z,25.36
2022-07-30T14:18:52.492Z,25.35
2022-07-30T14:21:20.730Z,25.13
2022-07-30T14:23:48.970Z,24.86
2022-07-30T14:26:17.201Z,25.02
2022-07-30T14:28:45.441Z,24.03
2022-07-30T14:31:13.685Z,25.09
2022-07-30T14:33:41.984Z,25.11
2022-07-30T14:36:11.554Z,25.61
2022-07-30T14:38:39.993Z,26.03
2022-07-30T14:41:09.003Z,25.87
2022-07-30T14:43:37.380Z,25.84
2022-07-30T14:46:06.019Z,26.20
2022-07-30T14:48:34.245Z,26.12
2022-07-30T14:51:14.750Z,25.75
2022-07-30T14:53:47.142Z,25.62
2022-07-30T14:56:17.667Z,26.02
2022-07-30T14:58:46.238Z,25.88
2022-07-30T15:01:16.585Z,25.50
2022-07-30T15:03:45.818Z,25.49
2022-07-30T15:06:15.255Z,25.65
2022-07-30T15:08:46.004Z,25.81
2022-07-30T15:11:14.766Z,26.11
2022-07-30T15:13:50.220Z,26.15
2022-07-30T15:16:19.296Z,26.27
2022-07-30T15:18:47.770Z,26.48
2022-07-30T15:21:16.253Z,26.38
2022-07-30T15:23:46.218Z,26.12
2022-07-30T15:26:14.561Z,25.94
2022-07-30T15:28:42.937Z,25.93
2022-07-30T15:31:11.211Z,26.27
2022-07-30T15:33:43.007Z,25.96
2022-07-30T15:36:12.184Z,25.87
2022-07-30T15:38:40.890Z,26.12
2022-07-30T15:41:13.651Z,26.15
2022-07-30T15:43:42.340Z,25.86
2022-07-30T15:46:10.651Z,25.82
2022-07-30T15:48:38.924Z,25.75
2022-07-30T15:51:07.946Z,25.76
2022-07-30T15:53:36.232Z,25.82
2022-07-30T15:56:04.996Z,25.71
2022-07-30T15:58:36.152Z,25.59
2022-07-30T16:01:06.350Z,25.46
2022-07-30T16:03:34.709Z,25.40
2022-07-30T16:06:03.233Z,25.50
2022-07-30T16:08:31.494Z,25.55
2022-07-30T16:11:03.762Z,25.45
2022-07-30T16:13:32.275Z,25.48
2022-07-30T16:16:06.358Z,25.56
2022-07-30T16:18:34.877Z,25.53
2022-07-30T16:21:03.248Z,25.64
2022-07-30T16:23:36.415Z,25.34
2022-07-30T16:26:05.398Z,25.39
2022-07-30T16:28:33.906Z,25.39
2022-07-30T16:31:03.620Z,25.27
2022-07-30T16:33:31.871Z,25.39
2022-07-30T16:36:00.102Z,25.41
2022-07-30T16:38:28.378Z,25.44
2022-07-30T16:40:56.709Z,25.62
2022-07-30T16:43:25.040Z,25.58
2022-07-30T16:45:53.900Z,25.28
2022-07-30T16:48:23.515Z,25.29
2022-07-30T16:50:51.856Z,25.31
2022-07-30T16:53:20.202Z,25.35
2022-07-30T16:55:48.895Z,25.36
2022-07-30T16:58:17.608Z,25.34
2022-07-30T17:00:49.823Z,25.38
2022-07-30T17:03:20.036Z,25.24
2022-07-30T17:05:50.111Z,25.20
2022-07-30T17:08:18.497Z,25.24
2022-07-30T17:10:47.836Z,24.52
2022-07-30T17:13:17.226Z,25.19
2022-07-30T17:15:46.833Z,25.01
2022-07-30T17:18:15.406Z,24.77
2022-07-30T17:20:44.022Z,24.59
2022-07-30T17:23:13.960Z,24.61
2022-07-30T17:25:42.252Z,24.48
2022-07-30T17:28:10.600Z,24.44
2022-07-30T17:30:39.041Z,24.51
2022-07-30T17:33:07.362Z,24.53
2022-07-30T17:35:35.689Z,24.61
2022-07-30T17:38:04.011Z,24.63
2022-07-30T17:40:33.764Z,24.69
2022-07-30T17:43:04.696Z,24.58
2022-07-30T17:45:34.669Z,24.81
2022-07-30T17:48:07.051Z,24.94
2022-07-30T17:50:36.650Z,24.72
2022-07-30T17:53:06.148Z,24.85
2022-07-30T17:55:35.796Z,24.78
2022-07-30T17:58:04.836Z,24.78
2022-07-30T18:00:34.819Z,24.67
2022-07-30T18:03:09.173Z,24.86
2022-07-30T18:05:37.451Z,24.96
2022-07-30T18:08:06.050Z,25.10
2022-07-30T18:10:35.691Z,24.76
2022-07-30T18:13:25.830Z,25.00
2022-07-30T18:15:52.751Z,25.13
2022-07-30T18:18:21.138Z,24.82
2022-07-30T18:20:49.360Z,24.90
2022-07-30T18:23:19.250Z,24.83
2022-07-30T18:25:51.920Z,24.86
2022-07-30T18:28:22.572Z,24.88
2022-07-30T18:30:51.331Z,24.80
2022-07-30T18:33:19.650Z,24.99
2022-07-30T18:35:48.520Z,24.67
2022-07-30T18:38:16.884Z,24.55
2022-07-30T18:40:57.494Z,24.06
2022-07-30T18:43:28.084Z,24.31
2022-07-30T18:45:57.448Z,24.17
2022-07-30T18:48:26.372Z,24.13
2022-07-30T18:50:55.040Z,24.11
2022-07-30T18:53:23.280Z,23.92
2022-07-30T18:55:51.872Z,23.90
2022-07-30T18:58:20.094Z,23.96
2022-07-30T19:00:50.002Z,23.89
2022-07-30T19:03:22.871Z,23.54
2022-07-30T19:05:51.564Z,23.58
2022-07-30T19:08:19.807Z,23.42
2022-07-30T19:10:48.622Z,23.22
2022-07-30T19:13:16.851Z,23.03
2022-07-30T19:15:45.176Z,22.77
2022-07-30T19:18:15.311Z,22.64
2022-07-30T19:20:44.468Z,22.47
2022-07-30T19:23:13.675Z,22.26
2022-07-30T19:25:47.014Z,21.41
2022-07-30T19:28:17.810Z,21.90
2022-07-30T19:30:46.150Z,21.85
2022-07-30T19:33:16.047Z,21.92
2022-07-30T19:35:45.069Z,21.66
2022-07-30T19:38:21.625Z,21.66
2022-07-30T19:40:50.492Z,21.34
2022-07-30T19:43:24.116Z,21.41
2022-07-30T19:45:53.221Z,21.20
2022-07-30T19:48:28.410Z,21.24
2022-07-30T19:50:58.709Z,21.24
2022-07-30T19:53:27.977Z,21.19
2022-07-30T19:56:01.733Z,21.16
2022-07-30T19:58:31.716Z,21.16
2022-07-30T20:01:01.284Z,21.14
2022-07-30T20:03:32.117Z,21.08
2022-07-30T20:06:07.286Z,21.20
2022-07-30T20:08:35.995Z,21.09
2022-07-30T20:11:07.002Z,21.01
2022-07-30T20:13:43.908Z,20.66
2022-07-30T20:16:12.888Z,20.67
2022-07-30T20:18:44.464Z,20.60
2022-07-30T20:21:15.610Z,20.54
2022-07-30T20:23:44.645Z,20.51
2022-07-30T20:26:14.813Z,20.50
2022-07-30T20:28:47.681Z,20.46
2022-07-30T20:31:21.330Z,20.38
2022-07-30T20:33:51.383Z,20.40
2022-07-30T20:36:22.290Z,20.41
2022-07-30T20:38:52.435Z,19.78
2022-07-30T20:41:21.627Z,20.28
2022-07-30T20:43:52.467Z,19.10
2022-07-30T20:46:23.875Z,20.14
2022-07-30T20:48:53.730Z,20.34
2022-07-30T20:51:33.504Z,20.00
2022-07-30T20:54:02.433Z,20.69
2022-07-30T20:56:30.976Z,20.16
2022-07-30T20:58:59.164Z,20.14
2022-07-30T21:01:28.457Z,20.08
2022-07-30T21:04:00.418Z,20.05
2022-07-30T21:06:28.663Z,19.97
2022-07-30T21:08:57.446Z,19.53
2022-07-30T21:11:26.558Z,20.06
2022-07-30T21:13:55.077Z,19.80
2022-07-30T21:16:25.360Z,19.74
2022-07-30T21:18:53.567Z,19.70
2022-07-30T21:21:32.828Z,19.71
2022-07-30T21:24:12.315Z,19.67
2022-07-30T21:26:41.545Z,19.50
2022-07-30T21:29:10.521Z,19.68
2022-07-30T21:32:02.332Z,19.60
2022-07-30T21:34:30.831Z,19.62
2022-07-30T21:37:05.349Z,19.67
2022-07-30T21:39:39.922Z,19.70
2022-07-30T21:42:09.030Z,19.55
2022-07-30T21:44:38.272Z,19.57
2022-07-30T21:47:10.775Z,19.49
2022-07-30T21:49:39.875Z,19.49
2022-07-30T21:52:09.743Z,19.34
2022-07-30T21:54:45.363Z,19.29
2022-07-30T21:57:26.505Z,19.22
2022-07-30T21:59:58.553Z,18.94
2022-07-30T22:02:28.070Z,18.66
2022-07-30T22:04:56.594Z,18.71
2022-07-30T22:07:28.685Z,18.51
2022-07-30T22:09:56.922Z,18.32
2022-07-30T22:12:25.930Z,18.30
2022-07-30T22:14:57.600Z,18.06
2022-07-30T22:17:36.599Z,18.14
2022-07-30T22:20:08.580Z,18.05
2022-07-30T22:22:38.715Z,18.01
2022-07-30T22:25:10.111Z,18.04
2022-07-30T22:27:39.475Z,17.81
2022-07-30T22:30:10.183Z,17.72
2022-07-30T22:32:42.917Z,17.27
2022-07-30T22:35:11.897Z,18.23
2022-07-30T22:37:46.281Z,17.58
2022-07-30T22:40:16.195Z,17.62
2022-07-30T22:42:46.865Z,17.65
2022-07-30T22:45:35.269Z,17.16
2022-07-30T22:48:11.084Z,17.60
2022-07-30T22:50:40.004Z,17.53
2022-07-30T22:53:56.725Z,17.37
2022-07-30T22:55:59.444Z,17.30
2022-07-30T22:58:28.796Z,17.15
2022-07-30T23:00:57.957Z,17.12
2022-07-30T23:03:26.173Z,17.13
2022-07-30T23:05:56.591Z,17.11
2022-07-30T23:08:29.696Z,17.25
2022-07-30T23:10:59.853Z,17.16
2022-07-30T23:13:28.864Z,17.16
2022-07-30T23:15:57.334Z,17.27
2022-07-30T23:18:25.544Z,17.31
2022-07-30T23:20:59.895Z,17.31
2022-07-30T23:23:30.781Z,17.23
2022-07-30T23:26:03.096Z,17.25
2022-07-30T23:28:31.501Z,17.17
2022-07-30T23:31:00.192Z,17.16
2022-07-30T23:33:28.705Z,17.21
2022-07-30T23:35:57.003Z,17.22
2022-07-30T23:38:25.657Z,17.15
2022-07-30T23:40:55.505Z,17.24
2022-07-30T23:43:24.461Z,17.10
2022-07-30T23:45:52.705Z,17.08
2022-07-30T23:48:20.919Z,17.17
2022-07-30T23:50:49.625Z,16.18
2022-07-30T23:53:17.892Z,17.14
2022-07-30T23:55:49.944Z,17.18
2022-07-30T23:58:19.660Z,17.02
